Time;durP1;ratioP1;P1;durP2;ratioP2;P2;SDS_P1;SDS_P2;PMS_P1;PMS_P2;Temp;Humidity;BMP_temperature;BMP_pressure;BME280_temperature;BME280_humidity;BME280_pressure;Samples;Min_cycle;Max_cycle;Signal;HPM_P1;HPM_P2
2022/10/10 00:00:21;;;;;;;10.07;5.77;;;;;;;;;;4939750;29;20142;-68
2022/10/10 00:02:46;;;;;;;11.23;6.47;;;;;;;;;;4938352;29;20130;-67
2022/10/10 00:05:11;;;;;;;7.30;5.63;;;;;;;;;;4937136;29;20547;-66
2022/10/10 00:07:36;;;;;;;7.33;6.10;;;;;;;;;;4936743;29;20074;-67
2022/10/10 00:10:02;;;;;;;9.47;5.90;;;;;;;;;;4937286;29;20027;-68
2022/10/10 00:12:27;;;;;;;9.73;6.17;;;;;;;;;;4935173;29;20070;-67
2022/10/10 00:14:52;;;;;;;10.23;7.10;;;;;;;;;;4934615;29;20940;-67
2022/10/10 00:17:18;;;;;;;12.93;7.80;;;;;;;;;;4934819;29;20042;-68
2022/10/10 00:19:43;;;;;;;10.07;7.40;;;;;;;;;;4937619;29;20035;-68
2022/10/10 00:22:08;;;;;;;10.90;7.40;;;;;;;;;;4936149;29;20467;-67
2022/10/10 00:24:33;;;;;;;7.30;5.63;;;;;;;;;;4936656;29;20023;-68
2022/10/10 00:26:59;;;;;;;7.33;5.17;;;;;;;;;;4935848;29;20597;-68
2022/10/10 00:29:24;;;;;;;5.90;4.93;;;;;;;;;;4935318;29;20855;-69
2022/10/10 00:31:49;;;;;;;7.37;4.97;;;;;;;;;;4934740;29;20066;-68
2022/10/10 00:34:14;;;;;;;5.93;5.30;;;;;;;;;;4935404;29;20067;-68
2022/10/10 00:36:40;;;;;;;5.67;5.03;;;;;;;;;;4935350;29;20554;-68
2022/10/10 00:39:05;;;;;;;9.20;5.50;;;;;;;;;;4935448;29;20162;-67
2022/10/10 00:41:30;;;;;;;7.33;5.93;;;;;;;;;;4930607;29;20034;-67
2022/10/10 00:44:00;;;;;;;8.47;6.27;;;;;;;;;;4933389;29;20115;-67
2022/10/10 00:46:25;;;;;;;7.80;6.10;;;;;;;;;;4936158;29;20562;-68
2022/10/10 00:48:50;;;;;;;11.27;6.37;;;;;;;;;;4935041;29;20067;-68
2022/10/10 00:51:16;;;;;;;9.77;5.67;;;;;;;;;;4935305;29;20035;-68
2022/10/10 00:53:44;;;;;;;6.77;5.63;;;;;;;;;;4932290;29;20052;-68
2022/10/10 00:56:11;;;;;;;7.27;5.43;;;;;;;;;;4933229;29;20030;-69
2022/10/10 00:58:39;;;;;;;5.90;4.90;;;;;;;;;;4935377;29;20042;-70
2022/10/10 01:01:05;;;;;;;6.97;5.03;;;;;;;;;;4934648;29;20051;-69
2022/10/10 01:03:30;;;;;;;6.07;4.67;;;;;;;;;;4935234;29;20120;-69
2022/10/10 01:05:55;;;;;;;7.80;4.30;;;;;;;;;;4936004;29;20031;-69
2022/10/10 01:08:21;;;;;;;9.00;4.07;;;;;;;;;;4935125;29;20035;-70
2022/10/10 01:10:58;;;;;;;5.77;4.27;;;;;;;;;;4936169;29;20063;-69
2022/10/10 01:13:41;;;;;;;6.73;3.37;;;;;;;;;;4933071;29;20105;-69
2022/10/10 01:16:15;;;;;;;7.70;4.27;;;;;;;;;;4934378;29;20512;-70
2022/10/10 01:18:43;;;;;;;6.43;3.43;;;;;;;;;;4936065;29;20032;-69
2022/10/10 01:21:27;;;;;;;6.80;3.63;;;;;;;;;;4934028;28;20148;-69
2022/10/10 01:23:52;;;;;;;6.00;3.70;;;;;;;;;;4935803;29;20043;-69
2022/10/10 01:26:36;;;;;;;4.47;3.23;;;;;;;;;;4935440;29;20027;-69
2022/10/10 01:29:21;;;;;;;3.57;3.27;;;;;;;;;;4933576;29;20626;-71
2022/10/10 01:31:50;;;;;;;4.72;3.08;;;;;;;;;;4921758;29;20046;-69
2022/10/10 01:34:25;;;;;;;5.53;3.50;;;;;;;;;;4934648;29;20751;-69
2022/10/10 01:36:50;;;;;;;9.57;3.33;;;;;;;;;;4935106;29;20023;-69
2022/10/10 01:39:51;;;;;;;4.57;3.77;;;;;;;;;;4933955;29;20030;-69
2022/10/10 01:42:35;;;;;;;5.07;3.20;;;;;;;;;;4870629;29;20037;-71
2022/10/10 01:45:00;;;;;;;4.37;2.70;;;;;;;;;;4871259;29;20044;-70
2022/10/10 01:47:26;;;;;;;4.53;3.10;;;;;;;;;;4867178;29;20068;-67
2022/10/10 01:49:53;;;;;;;5.23;2.70;;;;;;;;;;4866820;29;20212;-69
2022/10/10 01:52:33;;;;;;;4.23;3.17;;;;;;;;;;4868575;29;20590;-67
2022/10/10 01:54:58;;;;;;;4.20;3.23;;;;;;;;;;4868696;29;20036;-69
2022/10/10 01:57:35;;;;;;;7.27;2.47;;;;;;;;;;4871622;29;20076;-69
2022/10/10 02:00:04;;;;;;;4.87;3.07;;;;;;;;;;4873954;29;20038;-69
2022/10/10 02:02:41;;;;;;;4.50;2.70;;;;;;;;;;4874090;29;20504;-68
2022/10/10 02:05:09;;;;;;;3.33;2.27;;;;;;;;;;4871811;29;20033;-69
2022/10/10 02:07:40;;;;;;;3.57;2.70;;;;;;;;;;4869132;29;20075;-70
2022/10/10 02:10:06;;;;;;;4.07;3.00;;;;;;;;;;4869583;29;20167;-68
2022/10/10 02:12:32;;;;;;;6.37;5.00;;;;;;;;;;4869884;29;20061;-70
2022/10/10 02:15:02;;;;;;;3.93;2.37;;;;;;;;;;4853126;29;20666;-69
2022/10/10 02:17:29;;;;;;;6.87;3.43;;;;;;;;;;4933243;29;20039;-68
2022/10/10 02:19:56;;;;;;;4.07;2.53;;;;;;;;;;4932807;29;20113;-70
2022/10/10 02:22:22;;;;;;;2.73;2.33;;;;;;;;;;4933084;28;20028;-69
2022/10/10 02:24:48;;;;;;;4.17;2.50;;;;;;;;;;4934803;29;20154;-70
2022/10/10 02:27:20;;;;;;;2.93;2.43;;;;;;;;;;4931512;28;20028;-69
2022/10/10 02:29:46;;;;;;;3.87;2.57;;;;;;;;;;4934861;29;20020;-69
2022/10/10 02:32:19;;;;;;;3.37;2.40;;;;;;;;;;4934529;29;20043;-69
2022/10/10 02:34:47;;;;;;;4.00;2.60;;;;;;;;;;4934257;29;20053;-68
2022/10/10 02:37:14;;;;;;;5.50;2.60;;;;;;;;;;4931845;28;20497;-69
2022/10/10 02:39:41;;;;;;;3.63;2.40;;;;;;;;;;4934027;29;20058;-68
2022/10/10 02:42:07;;;;;;;4.43;2.40;;;;;;;;;;4934196;29;20489;-69
2022/10/10 02:44:32;;;;;;;3.97;2.50;;;;;;;;;;4916756;29;20032;-68
2022/10/10 02:46:58;;;;;;;2.93;2.33;;;;;;;;;;4933113;29;20447;-68
2022/10/10 02:49:27;;;;;;;3.20;2.47;;;;;;;;;;4934655;29;20087;-69
2022/10/10 02:51:52;;;;;;;2.80;2.17;;;;;;;;;;4934193;29;20030;-68
2022/10/10 02:54:18;;;;;;;3.67;3.10;;;;;;;;;;4933124;29;20399;-67
2022/10/10 02:56:43;;;;;;;4.73;2.80;;;;;;;;;;4933378;29;20020;-69
2022/10/10 02:59:08;;;;;;;2.57;2.37;;;;;;;;;;4932997;29;20032;-69
2022/10/10 03:01:34;;;;;;;2.97;2.60;;;;;;;;;;4934311;28;20379;-67
2022/10/10 03:03:59;;;;;;;4.10;2.67;;;;;;;;;;4933892;29;20035;-68
2022/10/10 03:06:24;;;;;;;2.80;2.60;;;;;;;;;;4932362;29;20114;-68
2022/10/10 03:08:49;;;;;;;4.90;2.13;;;;;;;;;;4932529;29;20150;-68
2022/10/10 03:11:14;;;;;;;3.93;2.20;;;;;;;;;;4929628;29;20059;-69
2022/10/10 03:13:40;;;;;;;4.13;2.10;;;;;;;;;;4931350;29;20127;-68
2022/10/10 03:16:05;;;;;;;2.80;2.10;;;;;;;;;;4933903;29;20385;-68
2022/10/10 03:18:30;;;;;;;2.60;1.93;;;;;;;;;;4933724;29;20531;-68
2022/10/10 03:20:56;;;;;;;2.70;2.30;;;;;;;;;;4934045;29;20067;-68
2022/10/10 03:23:22;;;;;;;4.13;2.00;;;;;;;;;;4934202;29;20129;-69
2022/10/10 03:25:47;;;;;;;2.10;1.90;;;;;;;;;;4935113;29;20050;-68
2022/10/10 03:28:13;;;;;;;3.87;2.33;;;;;;;;;;4935847;29;20050;-68
2022/10/10 03:30:39;;;;;;;2.13;1.93;;;;;;;;;;4933763;29;20553;-69
2022/10/10 03:33:04;;;;;;;3.13;2.13;;;;;;;;;;4935401;28;20434;-68
2022/10/10 03:35:30;;;;;;;5.57;2.13;;;;;;;;;;4936062;29;20028;-67
2022/10/10 03:37:55;;;;;;;3.37;2.57;;;;;;;;;;4934222;29;20028;-68
2022/10/10 03:40:20;;;;;;;4.30;2.83;;;;;;;;;;4915052;29;20138;-69
2022/10/10 03:42:45;;;;;;;5.27;3.47;;;;;;;;;;4934778;29;20032;-68
2022/10/10 03:45:11;;;;;;;3.00;2.80;;;;;;;;;;4934321;29;20047;-68
2022/10/10 03:47:36;;;;;;;4.47;3.10;;;;;;;;;;4934931;29;20038;-67
2022/10/10 03:50:01;;;;;;;5.20;3.53;;;;;;;;;;4934209;29;20027;-68
2022/10/10 03:52:27;;;;;;;3.80;3.10;;;;;;;;;;4933495;29;20486;-68
2022/10/10 03:54:52;;;;;;;3.50;2.90;;;;;;;;;;4932782;29;20138;-69
2022/10/10 03:57:17;;;;;;;4.63;3.20;;;;;;;;;;4934710;29;20023;-69
2022/10/10 03:59:42;;;;;;;2.90;2.70;;;;;;;;;;4921244;29;20718;-69
2022/10/10 04:02:08;;;;;;;4.87;2.47;;;;;;;;;;4934580;29;20066;-68
2022/10/10 04:04:33;;;;;;;3.13;2.27;;;;;;;;;;4918388;29;20062;-67
2022/10/10 04:06:58;;;;;;;3.13;2.70;;;;;;;;;;4934057;29;20150;-68
2022/10/10 04:09:23;;;;;;;3.83;2.50;;;;;;;;;;4933749;28;20394;-67
2022/10/10 04:11:49;;;;;;;4.17;2.57;;;;;;;;;;4937201;29;20554;-67
2022/10/10 04:14:14;;;;;;;3.97;2.07;;;;;;;;;;4936912;29;20448;-67
2022/10/10 04:16:39;;;;;;;3.30;2.50;;;;;;;;;;4936756;29;20114;-67
2022/10/10 04:19:04;;;;;;;7.43;3.67;;;;;;;;;;4937838;28;20067;-67
2022/10/10 04:21:30;;;;;;;4.10;2.40;;;;;;;;;;4937038;29;20038;-69
2022/10/10 04:23:55;;;;;;;4.30;3.30;;;;;;;;;;4937950;29;20031;-68
2022/10/10 04:26:21;;;;;;;3.23;2.73;;;;;;;;;;4937186;29;20041;-68
2022/10/10 04:28:46;;;;;;;4.03;2.97;;;;;;;;;;4935775;29;20035;-67
2022/10/10 04:31:11;;;;;;;3.13;2.60;;;;;;;;;;4937773;29;20131;-68
2022/10/10 04:33:36;;;;;;;5.30;3.23;;;;;;;;;;4935071;29;20916;-70
2022/10/10 04:36:02;;;;;;;5.97;3.30;;;;;;;;;;4937699;29;20927;-70
2022/10/10 04:38:28;;;;;;;4.23;3.30;;;;;;;;;;4936435;29;20048;-68
2022/10/10 04:40:53;;;;;;;4.07;2.70;;;;;;;;;;4919334;29;20050;-68
2022/10/10 04:43:19;;;;;;;4.53;3.20;;;;;;;;;;4936128;29;20740;-70
2022/10/10 04:45:44;;;;;;;5.13;2.90;;;;;;;;;;4935256;29;20028;-71
2022/10/10 04:48:10;;;;;;;3.50;3.17;;;;;;;;;;4936398;28;20506;-70
2022/10/10 04:50:35;;;;;;;4.10;2.97;;;;;;;;;;4936955;29;20077;-69
2022/10/10 04:53:01;;;;;;;3.90;2.90;;;;;;;;;;4934329;29;20036;-69
2022/10/10 04:55:26;;;;;;;5.30;2.80;;;;;;;;;;4936875;29;20019;-70
2022/10/10 04:57:51;;;;;;;5.60;3.20;;;;;;;;;;4925802;29;20039;-69
2022/10/10 05:00:16;;;;;;;3.73;3.40;;;;;;;;;;4935038;29;20584;-70
2022/10/10 05:02:41;;;;;;;4.70;3.03;;;;;;;;;;4934554;29;20442;-70
2022/10/10 05:05:08;;;;;;;7.27;3.20;;;;;;;;;;4935929;29;20139;-71
2022/10/10 05:07:33;;;;;;;6.90;2.87;;;;;;;;;;4934320;28;20027;-68
2022/10/10 05:09:58;;;;;;;6.67;3.40;;;;;;;;;;4935144;29;20580;-71
2022/10/10 05:12:23;;;;;;;4.77;3.23;;;;;;;;;;4935503;29;20150;-74
2022/10/10 05:14:49;;;;;;;5.83;3.83;;;;;;;;;;4936698;29;20032;-74
2022/10/10 05:17:14;;;;;;;8.40;5.10;;;;;;;;;;4932435;29;20035;-75
2022/10/10 05:19:39;;;;;;;10.07;6.30;;;;;;;;;;4933501;29;20145;-74
2022/10/10 05:22:04;;;;;;;9.97;5.53;;;;;;;;;;4935444;29;20043;-75
2022/10/10 05:24:30;;;;;;;7.43;4.67;;;;;;;;;;4917432;29;20041;-75
2022/10/10 05:26:55;;;;;;;8.77;5.30;;;;;;;;;;4933837;29;20043;-75
2022/10/10 05:29:20;;;;;;;5.40;2.90;;;;;;;;;;4934898;29;20047;-75
2022/10/10 05:31:46;;;;;;;3.77;3.23;;;;;;;;;;4934383;29;20142;-75
2022/10/10 05:34:12;;;;;;;6.97;3.37;;;;;;;;;;4934194;29;20134;-73
2022/10/10 05:36:37;;;;;;;5.27;3.53;;;;;;;;;;4933454;29;20034;-74
2022/10/10 05:39:03;;;;;;;4.73;4.13;;;;;;;;;;4930094;29;20055;-74
2022/10/10 05:41:28;;;;;;;4.97;3.03;;;;;;;;;;4933582;29;20019;-73
2022/10/10 05:43:53;;;;;;;11.17;3.77;;;;;;;;;;4935187;29;20147;-75
2022/10/10 05:46:20;;;;;;;9.73;3.03;;;;;;;;;;4920963;29;20036;-74
2022/10/10 05:48:46;;;;;;;9.03;3.43;;;;;;;;;;4934447;29;20035;-74
2022/10/10 05:51:12;;;;;;;6.07;3.13;;;;;;;;;;4934647;29;20089;-75
2022/10/10 05:53:37;;;;;;;7.25;3.20;;;;;;;;;;4930934;29;20070;-74
2022/10/10 05:56:02;;;;;;;5.93;3.10;;;;;;;;;;4930874;29;20043;-74
2022/10/10 05:58:27;;;;;;;5.67;3.30;;;;;;;;;;4932813;28;20020;-74
2022/10/10 06:00:53;;;;;;;3.25;2.92;;;;;;;;;;4935018;28;20145;-74
2022/10/10 06:03:18;;;;;;;5.22;2.60;;;;;;;;;;4932568;29;20116;-73
2022/10/10 06:05:44;;;;;;;6.80;3.30;;;;;;;;;;4931315;29;20374;-75
2022/10/10 06:08:10;;;;;;;8.50;3.53;;;;;;;;;;4931335;29;20024;-74
2022/10/10 06:10:36;;;;;;;8.88;2.97;;;;;;;;;;4931089;29;20082;-74
2022/10/10 06:13:01;;;;;;;7.45;3.60;;;;;;;;;;4929249;28;20582;-73
2022/10/10 06:15:26;;;;;;;4.03;3.03;;;;;;;;;;4933162;29;20046;-73
2022/10/10 06:17:52;;;;;;;4.90;2.53;;;;;;;;;;4929623;29;20046;-74
2022/10/10 06:20:17;;;;;;;4.15;2.92;;;;;;;;;;4930798;29;20024;-73
2022/10/10 06:22:42;;;;;;;5.90;2.70;;;;;;;;;;4933303;28;20039;-75
2022/10/10 06:25:08;;;;;;;5.47;3.05;;;;;;;;;;4933705;29;20157;-75
2022/10/10 06:27:33;;;;;;;5.80;3.10;;;;;;;;;;4933331;29;20035;-73
2022/10/10 06:29:58;;;;;;;10.02;3.15;;;;;;;;;;4934860;29;20071;-74
2022/10/10 06:32:24;;;;;;;4.90;3.03;;;;;;;;;;4929928;29;20032;-74
2022/10/10 06:34:49;;;;;;;5.38;3.20;;;;;;;;;;4930225;29;20103;-74
2022/10/10 06:37:14;;;;;;;5.85;3.78;;;;;;;;;;4925170;29;20106;-74
2022/10/10 06:39:39;;;;;;;6.88;4.22;;;;;;;;;;4935121;29;20471;-74
2022/10/10 06:42:05;;;;;;;5.03;3.38;;;;;;;;;;4932433;29;20054;-74
2022/10/10 06:44:30;;;;;;;5.43;2.90;;;;;;;;;;4929993;29;20043;-73
2022/10/10 06:46:55;;;;;;;4.22;2.97;;;;;;;;;;4932487;29;20027;-74
2022/10/10 06:49:21;;;;;;;10.02;3.03;;;;;;;;;;4932582;29;20119;-74
2022/10/10 06:51:46;;;;;;;5.20;3.08;;;;;;;;;;4935107;29;20489;-74
2022/10/10 06:54:11;;;;;;;4.72;2.88;;;;;;;;;;4934718;29;20217;-73
2022/10/10 06:56:37;;;;;;;6.97;3.08;;;;;;;;;;4933008;29;20142;-74
2022/10/10 06:59:02;;;;;;;11.88;2.50;;;;;;;;;;4931964;29;20114;-73
2022/10/10 07:01:27;;;;;;;5.75;2.92;;;;;;;;;;4932091;28;20458;-72
2022/10/10 07:03:53;;;;;;;5.75;2.95;;;;;;;;;;4931440;29;20051;-72
2022/10/10 07:06:18;;;;;;;6.68;3.15;;;;;;;;;;4926806;29;20027;-73
2022/10/10 07:08:44;;;;;;;6.88;2.85;;;;;;;;;;4934251;29;20037;-70
2022/10/10 07:11:09;;;;;;;11.45;2.65;;;;;;;;;;4935915;29;20394;-70
2022/10/10 07:13:35;;;;;;;6.85;2.95;;;;;;;;;;4930077;29;20692;-69
2022/10/10 07:16:01;;;;;;;9.90;3.33;;;;;;;;;;4932500;29;20454;-71
2022/10/10 07:18:26;;;;;;;8.50;2.80;;;;;;;;;;4931879;29;20026;-72
2022/10/10 07:20:55;;;;;;;7.28;3.58;;;;;;;;;;4930675;29;20139;-71
2022/10/10 07:23:21;;;;;;;4.80;3.28;;;;;;;;;;4930851;29;20149;-69
2022/10/10 07:25:46;;;;;;;7.72;3.17;;;;;;;;;;4931045;29;20043;-68
2022/10/10 07:28:11;;;;;;;3.58;3.20;;;;;;;;;;4932491;29;20034;-70
2022/10/10 07:30:42;;;;;;;6.40;3.25;;;;;;;;;;4931654;29;20035;-69
2022/10/10 07:33:07;;;;;;;6.97;2.75;;;;;;;;;;4929732;28;20054;-69
2022/10/10 07:35:34;;;;;;;5.28;3.28;;;;;;;;;;4933615;29;20471;-70
2022/10/10 07:37:59;;;;;;;5.78;3.28;;;;;;;;;;4917138;29;20033;-72
2022/10/10 07:40:24;;;;;;;3.97;3.17;;;;;;;;;;4930199;29;20046;-71
2022/10/10 07:42:49;;;;;;;7.57;3.65;;;;;;;;;;4928516;29;20233;-72
2022/10/10 07:45:15;;;;;;;7.03;3.70;;;;;;;;;;4932413;28;20038;-71
2022/10/10 07:47:40;;;;;;;5.07;2.75;;;;;;;;;;4933082;29;20046;-70
2022/10/10 07:50:06;;;;;;;8.05;3.15;;;;;;;;;;4936076;29;20215;-72
2022/10/10 07:52:32;;;;;;;6.88;5.25;;;;;;;;;;4933041;28;20034;-68
2022/10/10 07:54:57;;;;;;;7.82;4.25;;;;;;;;;;4935811;29;20494;-68
2022/10/10 07:57:23;;;;;;;6.30;3.33;;;;;;;;;;4921271;29;20032;-70
2022/10/10 07:59:48;;;;;;;7.00;4.15;;;;;;;;;;4937332;29;20109;-71
2022/10/10 08:02:13;;;;;;;9.15;4.07;;;;;;;;;;4937081;29;20031;-72
2022/10/10 08:04:39;;;;;;;13.48;3.80;;;;;;;;;;4933265;29;20866;-70
2022/10/10 08:07:04;;;;;;;5.25;3.72;;;;;;;;;;4933252;29;20028;-67
2022/10/10 08:09:29;;;;;;;7.70;4.20;;;;;;;;;;4936933;29;20055;-69
2022/10/10 08:11:55;;;;;;;5.07;3.58;;;;;;;;;;4937003;29;20147;-68
2022/10/10 08:14:20;;;;;;;7.13;3.85;;;;;;;;;;4936114;28;20035;-67
2022/10/10 08:16:45;;;;;;;7.03;3.78;;;;;;;;;;4921752;29;20024;-68
2022/10/10 08:19:10;;;;;;;5.38;4.03;;;;;;;;;;4938075;29;20040;-68
2022/10/10 08:21:36;;;;;;;4.20;3.80;;;;;;;;;;4936138;29;20074;-67
2022/10/10 08:24:01;;;;;;;7.80;3.95;;;;;;;;;;4933476;29;20034;-66
2022/10/10 08:26:27;;;;;;;4.63;3.53;;;;;;;;;;4933683;29;20027;-66
2022/10/10 08:28:52;;;;;;;6.95;4.63;;;;;;;;;;4932535;29;20071;-67
2022/10/10 08:31:18;;;;;;;5.80;3.42;;;;;;;;;;4930147;29;20086;-66
2022/10/10 08:33:45;;;;;;;4.07;3.17;;;;;;;;;;4933087;29;20026;-67
2022/10/10 08:36:15;;;;;;;6.65;3.88;;;;;;;;;;4929729;29;20031;-67
2022/10/10 08:38:40;;;;;;;4.43;3.35;;;;;;;;;;4932619;29;20038;-66
2022/10/10 08:41:07;;;;;;;3.22;2.90;;;;;;;;;;4934511;29;20036;-67
2022/10/10 08:43:37;;;;;;;6.10;4.05;;;;;;;;;;4933209;29;20032;-67
2022/10/10 08:46:07;;;;;;;4.00;3.40;;;;;;;;;;4933493;29;20054;-67
2022/10/10 08:48:33;;;;;;;4.18;3.80;;;;;;;;;;4936220;29;20063;-67
2022/10/10 08:51:00;;;;;;;4.15;3.45;;;;;;;;;;4936523;29;20146;-67
2022/10/10 08:53:40;;;;;;;6.45;3.65;;;;;;;;;;4933147;29;20031;-67
2022/10/10 08:56:06;;;;;;;4.78;3.22;;;;;;;;;;4915680;29;20431;-67
2022/10/10 08:58:41;;;;;;;6.72;3.45;;;;;;;;;;4919414;29;20024;-66
2022/10/10 09:01:19;;;;;;;10.25;3.47;;;;;;;;;;4935998;29;20020;-68
2022/10/10 09:03:44;;;;;;;3.80;3.40;;;;;;;;;;4932736;29;20071;-64
2022/10/10 09:06:22;;;;;;;5.03;3.30;;;;;;;;;;4931893;29;20114;-67
2022/10/10 09:08:53;;;;;;;4.18;3.80;;;;;;;;;;4937207;29;20031;-74
2022/10/10 09:11:18;;;;;;;4.20;3.65;;;;;;;;;;4934836;29;20069;-67
2022/10/10 09:14:02;;;;;;;6.80;3.22;;;;;;;;;;4935585;29;20876;-65
2022/10/10 09:16:46;;;;;;;4.18;3.53;;;;;;;;;;4934495;29;20038;-66
2022/10/10 09:19:23;;;;;;;4.03;3.63;;;;;;;;;;4936123;29;20138;-65
2022/10/10 09:21:50;;;;;;;6.10;3.70;;;;;;;;;;4933560;29;20039;-68
2022/10/10 09:24:19;;;;;;;5.63;3.30;;;;;;;;;;4921330;29;20054;-67
2022/10/10 09:26:50;;;;;;;5.60;4.20;;;;;;;;;;4934102;29;20032;-68
2022/10/10 09:29:24;;;;;;;6.90;3.75;;;;;;;;;;4937033;28;20058;-67
2022/10/10 09:31:54;;;;;;;9.07;4.05;;;;;;;;;;4934048;29;20031;-68
2022/10/10 09:34:29;;;;;;;7.80;3.95;;;;;;;;;;4935630;29;20046;-68
2022/10/10 09:36:59;;;;;;;5.05;3.80;;;;;;;;;;4936174;29;20124;-65
2022/10/10 09:39:38;;;;;;;4.65;3.60;;;;;;;;;;4933459;29;20803;-66
2022/10/10 09:42:07;;;;;;;3.72;3.40;;;;;;;;;;4933546;29;20024;-66
2022/10/10 09:44:33;;;;;;;5.15;4.10;;;;;;;;;;4935967;29;20027;-67
2022/10/10 09:46:59;;;;;;;4.15;2.85;;;;;;;;;;4935201;29;20036;-67
2022/10/10 09:49:24;;;;;;;4.50;3.78;;;;;;;;;;4935770;29;20031;-67
2022/10/10 09:51:49;;;;;;;4.38;3.97;;;;;;;;;;4935280;28;20110;-69
2022/10/10 09:54:16;;;;;;;5.88;4.43;;;;;;;;;;4934848;28;20037;-68
2022/10/10 09:56:44;;;;;;;7.88;4.13;;;;;;;;;;4934437;28;20039;-70
2022/10/10 09:59:29;;;;;;;7.05;3.55;;;;;;;;;;4935656;29;20109;-66
2022/10/10 10:02:14;;;;;;;4.28;3.88;;;;;;;;;;4934132;29;20679;-64
2022/10/10 10:04:40;;;;;;;8.50;4.40;;;;;;;;;;4934609;29;20032;-65
2022/10/10 10:07:19;;;;;;;4.47;3.67;;;;;;;;;;4928979;28;20031;-66
2022/10/10 10:09:49;;;;;;;10.65;3.80;;;;;;;;;;4930913;29;20408;-65
2022/10/10 10:12:16;;;;;;;7.18;4.32;;;;;;;;;;4933916;28;20051;-65
2022/10/10 10:14:42;;;;;;;4.13;3.80;;;;;;;;;;4935607;29;20023;-65
2022/10/10 10:17:08;;;;;;;5.15;4.72;;;;;;;;;;4935240;29;20094;-65
2022/10/10 10:19:35;;;;;;;5.35;4.72;;;;;;;;;;4933271;29;20063;-65
2022/10/10 10:22:01;;;;;;;5.00;4.15;;;;;;;;;;4935385;28;20035;-66
2022/10/10 10:24:35;;;;;;;5.47;4.32;;;;;;;;;;4934495;28;20472;-67
2022/10/10 10:27:26;;;;;;;5.43;3.80;;;;;;;;;;4932925;29;20046;-66
2022/10/10 10:29:53;;;;;;;8.02;3.97;;;;;;;;;;4932507;29;20283;-67
2022/10/10 10:32:18;;;;;;;9.70;5.13;;;;;;;;;;4934915;29;20028;-67
2022/10/10 10:34:49;;;;;;;5.85;4.28;;;;;;;;;;4934660;29;20378;-67
2022/10/10 10:37:22;;;;;;;8.18;4.15;;;;;;;;;;4936205;29;20031;-65
2022/10/10 10:40:03;;;;;;;5.18;3.90;;;;;;;;;;4935178;29;20063;-65
2022/10/10 10:42:28;;;;;;;6.38;4.28;;;;;;;;;;4935419;29;20566;-69
2022/10/10 10:44:56;;;;;;;6.45;4.82;;;;;;;;;;4935870;29;20063;-66
2022/10/10 10:47:28;;;;;;;5.30;3.83;;;;;;;;;;4935487;29;20119;-66
2022/10/10 10:50:04;;;;;;;9.95;4.70;;;;;;;;;;4933360;29;20031;-67
2022/10/10 10:52:39;;;;;;;8.52;4.38;;;;;;;;;;4931498;29;20035;-70
2022/10/10 10:55:07;;;;;;;10.23;6.07;;;;;;;;;;4934930;29;20648;-69
2022/10/10 10:57:41;;;;;;;9.20;5.20;;;;;;;;;;4935043;29;20047;-72
2022/10/10 11:00:17;;;;;;;8.52;5.10;;;;;;;;;;4931193;29;20458;-66
2022/10/10 11:03:01;;;;;;;5.30;4.80;;;;;;;;;;4932292;29;20043;-68
2022/10/10 11:05:37;;;;;;;6.25;4.68;;;;;;;;;;4933951;29;20387;-68
2022/10/10 11:08:18;;;;;;;5.97;5.40;;;;;;;;;;4932673;29;20031;-68
2022/10/10 11:11:02;;;;;;;5.22;4.40;;;;;;;;;;4930351;29;20028;-69
2022/10/10 11:13:32;;;;;;;7.03;4.28;;;;;;;;;;4933342;29;20713;-69
2022/10/10 11:16:02;;;;;;;5.20;4.10;;;;;;;;;;4917624;29;20086;-69
2022/10/10 11:18:29;;;;;;;11.95;4.72;;;;;;;;;;4929427;29;20921;-69
2022/10/10 11:21:00;;;;;;;8.35;4.95;;;;;;;;;;4930719;29;20087;-69
2022/10/10 11:23:38;;;;;;;8.88;5.50;;;;;;;;;;4929595;29;20047;-67
2022/10/10 11:26:15;;;;;;;6.18;4.75;;;;;;;;;;4928690;29;20024;-68
2022/10/10 11:29:10;;;;;;;12.18;4.75;;;;;;;;;;4931456;29;20027;-66
2022/10/10 11:31:38;;;;;;;6.67;5.83;;;;;;;;;;4922006;28;20047;-69
2022/10/10 11:34:20;;;;;;;9.82;5.38;;;;;;;;;;4933824;29;20027;-68
2022/10/10 11:36:46;;;;;;;6.47;5.88;;;;;;;;;;4932398;28;20087;-68
2022/10/10 11:39:30;;;;;;;13.82;5.38;;;;;;;;;;4928654;28;20295;-68
2022/10/10 11:41:55;;;;;;;7.22;6.63;;;;;;;;;;4930851;29;20106;-69
2022/10/10 11:44:27;;;;;;;7.22;6.25;;;;;;;;;;4932429;29;20122;-68
2022/10/10 11:46:53;;;;;;;6.72;5.97;;;;;;;;;;4934510;29;20015;-68
2022/10/10 11:49:18;;;;;;;7.75;7.05;;;;;;;;;;4934480;29;20030;-69
2022/10/10 11:51:55;;;;;;;6.93;5.35;;;;;;;;;;4935572;29;20023;-68
2022/10/10 11:54:31;;;;;;;6.35;5.13;;;;;;;;;;4932833;29;20118;-68
2022/10/10 11:56:59;;;;;;;6.05;5.45;;;;;;;;;;4933366;29;20069;-68
2022/10/10 11:59:27;;;;;;;7.00;6.00;;;;;;;;;;4932369;29;20455;-68
2022/10/10 12:01:55;;;;;;;7.07;6.35;;;;;;;;;;4934147;29;20040;-68
2022/10/10 12:04:20;;;;;;;8.27;5.70;;;;;;;;;;4932877;29;20463;-69
2022/10/10 12:06:57;;;;;;;8.00;6.00;;;;;;;;;;4934216;29;20031;-68
2022/10/10 12:09:35;;;;;;;7.80;5.80;;;;;;;;;;4932286;29;20914;-68
2022/10/10 12:12:03;;;;;;;9.40;6.53;;;;;;;;;;4934778;29;20051;-69
2022/10/10 12:14:30;;;;;;;7.57;6.43;;;;;;;;;;4933182;29;20035;-69
2022/10/10 12:16:56;;;;;;;6.20;5.70;;;;;;;;;;4933967;29;20056;-68
2022/10/10 12:19:22;;;;;;;7.47;6.50;;;;;;;;;;4933108;29;20110;-70
2022/10/10 12:22:04;;;;;;;7.53;6.47;;;;;;;;;;4933746;29;20055;-69
2022/10/10 12:24:31;;;;;;;6.85;6.15;;;;;;;;;;4933255;29;20034;-69
2022/10/10 12:26:56;;;;;;;9.18;5.93;;;;;;;;;;4933134;29;20058;-69
2022/10/10 12:29:48;;;;;;;7.07;6.15;;;;;;;;;;4934266;28;20109;-68
2022/10/10 12:32:13;;;;;;;9.35;7.13;;;;;;;;;;4930829;29;20058;-69
2022/10/10 12:34:38;;;;;;;7.00;6.30;;;;;;;;;;4938079;29;20031;-70
2022/10/10 12:37:18;;;;;;;6.93;6.22;;;;;;;;;;4937258;29;20118;-68
2022/10/10 12:39:59;;;;;;;6.50;5.90;;;;;;;;;;4936510;28;20053;-68
2022/10/10 12:42:26;;;;;;;6.20;5.60;;;;;;;;;;4937679;29;20471;-69
2022/10/10 12:44:51;;;;;;;6.85;6.10;;;;;;;;;;4931766;29;20233;-70
2022/10/10 12:47:16;;;;;;;7.07;6.55;;;;;;;;;;4934275;29;20467;-70
2022/10/10 12:49:52;;;;;;;6.93;6.20;;;;;;;;;;4934571;28;20045;-69
2022/10/10 12:52:23;;;;;;;8.32;6.68;;;;;;;;;;4937269;29;20044;-69
2022/10/10 12:54:48;;;;;;;6.70;6.10;;;;;;;;;;4936188;29;20059;-69
2022/10/10 12:57:26;;;;;;;8.23;7.43;;;;;;;;;;4937933;29;20123;-69
2022/10/10 12:59:51;;;;;;;6.97;6.35;;;;;;;;;;4936570;28;20031;-69
2022/10/10 13:02:25;;;;;;;17.88;7.55;;;;;;;;;;4938063;29;20036;-69
2022/10/10 13:04:52;;;;;;;8.48;6.80;;;;;;;;;;4935056;29;20043;-69
2022/10/10 13:07:19;;;;;;;9.73;7.38;;;;;;;;;;4937570;29;20027;-67
2022/10/10 13:09:46;;;;;;;7.53;6.88;;;;;;;;;;4937424;28;20034;-68
2022/10/10 13:12:25;;;;;;;9.20;6.60;;;;;;;;;;4936304;29;20062;-68
2022/10/10 13:14:51;;;;;;;7.78;7.05;;;;;;;;;;4937851;29;20059;-68
2022/10/10 13:17:19;;;;;;;9.48;7.65;;;;;;;;;;4933087;28;20039;-70
2022/10/10 13:19:44;;;;;;;8.80;7.00;;;;;;;;;;4931564;28;20037;-68
2022/10/10 13:22:10;;;;;;;8.15;7.35;;;;;;;;;;4933382;29;20034;-68
2022/10/10 13:24:35;;;;;;;7.95;6.85;;;;;;;;;;4937653;29;20038;-68
2022/10/10 13:27:00;;;;;;;7.38;6.68;;;;;;;;;;4935591;29;20885;-68
2022/10/10 13:29:29;;;;;;;8.48;7.07;;;;;;;;;;4934438;28;20032;-67
2022/10/10 13:31:57;;;;;;;9.82;6.93;;;;;;;;;;4934019;29;20027;-66
2022/10/10 13:34:27;;;;;;;7.47;6.78;;;;;;;;;;4936851;29;20079;-67
2022/10/10 13:36:54;;;;;;;7.60;6.75;;;;;;;;;;4937001;28;20031;-67
2022/10/10 13:39:20;;;;;;;8.30;7.53;;;;;;;;;;4937893;29;20382;-68
2022/10/10 13:41:46;;;;;;;7.45;6.47;;;;;;;;;;4933936;29;20027;-69
2022/10/10 13:44:19;;;;;;;9.10;6.88;;;;;;;;;;4937051;29;20258;-72
2022/10/10 13:46:45;;;;;;;8.70;6.57;;;;;;;;;;4924211;29;20103;-72
2022/10/10 13:49:36;;;;;;;7.47;6.82;;;;;;;;;;4934786;28;20059;-72
2022/10/10 13:52:18;;;;;;;8.80;6.97;;;;;;;;;;4933797;29;20047;-71
2022/10/10 13:54:45;;;;;;;8.55;7.70;;;;;;;;;;4935568;29;20110;-74
2022/10/10 13:57:18;;;;;;;8.43;6.95;;;;;;;;;;4937896;28;20028;-69
2022/10/10 13:59:45;;;;;;;10.10;8.10;;;;;;;;;;4940005;29;20032;-74
2022/10/10 14:02:12;;;;;;;10.10;7.72;;;;;;;;;;4940218;29;20083;-74
2022/10/10 14:04:48;;;;;;;7.72;7.07;;;;;;;;;;4941160;29;20027;-74
2022/10/10 14:07:24;;;;;;;8.32;7.55;;;;;;;;;;4942608;29;20252;-73
2022/10/10 14:09:55;;;;;;;8.00;7.13;;;;;;;;;;4945626;28;20027;-73
2022/10/10 14:12:24;;;;;;;14.45;7.30;;;;;;;;;;4939038;29;20079;-74
2022/10/10 14:14:50;;;;;;;11.65;7.18;;;;;;;;;;4948324;29;20047;-73
2022/10/10 14:17:16;;;;;;;7.25;6.55;;;;;;;;;;4942286;29;20024;-74
2022/10/10 14:19:42;;;;;;;13.35;8.23;;;;;;;;;;4941230;28;20043;-73
2022/10/10 14:22:07;;;;;;;8.75;7.35;;;;;;;;;;4938901;29;20042;-74
2022/10/10 14:24:32;;;;;;;8.70;7.50;;;;;;;;;;4938701;29;20032;-73
2022/10/10 14:27:04;;;;;;;12.25;8.13;;;;;;;;;;4943597;29;20038;-72
2022/10/10 14:29:29;;;;;;;12.80;6.90;;;;;;;;;;4942719;28;20023;-73
2022/10/10 14:31:54;;;;;;;6.55;5.93;;;;;;;;;;4943541;29;20664;-72
2022/10/10 14:34:19;;;;;;;7.80;5.95;;;;;;;;;;4940574;29;20114;-73
2022/10/10 14:36:47;;;;;;;8.90;6.03;;;;;;;;;;4936257;29;20035;-73
2022/10/10 14:39:17;;;;;;;8.63;5.90;;;;;;;;;;4937622;28;20031;-73
2022/10/10 14:41:42;;;;;;;8.15;6.43;;;;;;;;;;4936022;29;20035;-72
2022/10/10 14:44:08;;;;;;;6.88;5.70;;;;;;;;;;4938179;29;20031;-72
2022/10/10 14:46:34;;;;;;;6.93;6.22;;;;;;;;;;4932380;29;20298;-73
2022/10/10 14:48:59;;;;;;;7.43;6.38;;;;;;;;;;4918323;29;20023;-73